Time;durP1;ratioP1;P1;durP2;ratioP2;P2;SDS_P1;SDS_P2;PMS_P1;PMS_P2;Temp;Humidity;BMP_temperature;BMP_pressure;BME280_temperature;BME280_humidity;BME280_pressure;Samples;Min_cycle;Max_cycle;Signal;HPM_P1;HPM_P2
2022/04/17 00:02:15;;;;;;;1.20;1.10;;;;;;;11.95;32.74;102460.41;5184544;28;20029;-79
2022/04/17 00:04:46;;;;;;;0.50;0.50;;;;;;;12.18;32.92;102456.81;5185951;28;20028;-81
2022/04/17 00:07:16;;;;;;;0.70;0.70;;;;;;;12.21;33.02;102459.44;5202269;28;20033;-81
2022/04/17 00:09:47;;;;;;;0.50;0.50;;;;;;;12.17;33.15;102461.19;5202230;28;20051;-80
2022/04/17 00:12:17;;;;;;;0.60;0.60;;;;;;;12.15;33.44;102459.47;5218021;28;20032;-81
2022/04/17 00:14:48;;;;;;;0.50;0.50;;;;;;;12.19;33.42;102461.19;5185045;28;20480;-80
2022/04/17 00:17:19;;;;;;;0.82;0.82;;;;;;;12.13;33.53;102462.09;5194125;28;20028;-79
2022/04/17 00:19:49;;;;;;;0.47;0.47;;;;;;;12.11;33.09;102461.22;5175176;28;20044;-80
2022/04/17 00:22:20;;;;;;;0.82;0.82;;;;;;;12.09;33.57;102457.75;5177224;28;20588;-80
2022/04/17 00:24:50;;;;;;;0.77;0.77;;;;;;;12.03;33.68;102449.84;5211759;28;20120;-79
2022/04/17 00:27:21;;;;;;;1.48;1.05;;;;;;;11.92;33.77;102452.53;5203853;28;20087;-78
2022/04/17 00:29:51;;;;;;;0.38;0.38;;;;;;;11.98;33.38;102451.66;5211702;28;20626;-80
2022/04/17 00:32:22;;;;;;;0.80;0.80;;;;;;;11.93;33.96;102460.44;5201144;28;20060;-79
2022/04/17 00:34:52;;;;;;;0.82;0.77;;;;;;;11.98;33.75;102456.91;5199288;28;20041;-79
2022/04/17 00:37:23;;;;;;;0.52;0.52;;;;;;;11.92;33.29;102458.66;5194749;28;20044;-78
2022/04/17 00:39:53;;;;;;;0.52;0.52;;;;;;;11.83;34.36;102448.19;5209648;28;20126;-78
2022/04/17 00:42:24;;;;;;;2.28;1.30;;;;;;;11.59;33.84;102444.78;5179951;28;20041;-80
2022/04/17 00:44:54;;;;;;;0.43;0.43;;;;;;;11.76;33.77;102447.34;5209183;28;20618;-79
2022/04/17 00:47:25;;;;;;;0.40;0.40;;;;;;;11.85;33.73;102445.53;5198184;28;20029;-82
2022/04/17 00:49:58;;;;;;;0.40;0.40;;;;;;;11.79;34.27;102446.44;5176023;28;20081;-79
2022/04/17 00:52:29;;;;;;;0.40;0.40;;;;;;;11.68;33.44;102443.00;5211968;22;20088;-80
2022/04/17 00:55:02;;;;;;;0.38;0.38;;;;;;;11.75;33.84;102444.72;5194755;28;20076;-77
2022/04/17 00:57:33;;;;;;;;;;;;;;;11.73;33.66;102438.59;5200540;28;20033;-76
2022/04/17 01:00:05;;;;;;;0.85;0.85;;;;;;;11.71;34.02;102435.06;5191607;28;19928;-77
2022/04/17 01:02:35;;;;;;;0.98;0.98;;;;;;;11.42;34.09;102426.44;5189519;28;20044;-77
2022/04/17 01:05:06;;;;;;;0.35;0.35;;;;;;;11.44;34.25;102434.31;5196156;28;20037;-77
2022/04/17 01:07:37;;;;;;;0.40;0.40;;;;;;;11.40;33.97;102428.22;5175913;28;20033;-75
2022/04/17 01:10:11;;;;;;;0.40;0.40;;;;;;;11.47;34.28;102423.78;5197355;28;20045;-80
2022/04/17 01:12:42;;;;;;;0.50;0.50;;;;;;;11.58;34.56;102424.63;5189132;28;20037;-76
2022/04/17 01:15:12;;;;;;;0.88;0.85;;;;;;;11.49;34.44;102416.78;5195048;28;20034;-76
2022/04/17 01:17:42;;;;;;;0.70;0.70;;;;;;;10.99;34.70;102424.78;5186414;28;20056;-79
2022/04/17 01:20:19;;;;;;;0.98;0.90;;;;;;;11.00;35.08;102428.28;5192414;28;20413;-77
2022/04/17 01:26:56;;;;;;;0.50;0.50;;;;;;;11.20;34.68;102420.34;5193118;28;20025;-77
2022/04/17 01:28:31;;;;;;;0.43;0.43;;;;;;;10.83;35.44;102413.41;5187040;28;20061;-77
2022/04/17 01:31:02;;;;;;;0.40;0.40;;;;;;;11.03;35.35;102418.63;5191211;28;20512;-77
2022/04/17 01:33:33;;;;;;;0.47;0.47;;;;;;;10.77;35.90;102410.81;5197116;28;20068;-77
2022/04/17 01:36:03;;;;;;;0.50;0.50;;;;;;;11.08;35.61;102407.25;5195372;28;20083;-77
2022/04/17 01:38:34;;;;;;;0.40;0.40;;;;;;;11.06;35.33;102411.63;5194885;28;20536;-77
2022/04/17 01:41:04;;;;;;;0.40;0.40;;;;;;;10.85;35.80;102413.44;5193787;28;20041;-77
2022/04/17 01:43:35;;;;;;;0.40;0.40;;;;;;;10.96;35.98;102411.66;5204422;28;20038;-78
2022/04/17 01:46:05;;;;;;;0.30;0.30;;;;;;;10.75;35.79;102402.03;5193993;28;20037;-77
2022/04/17 01:48:35;;;;;;;0.40;0.40;;;;;;;10.90;36.19;102400.31;5189776;28;20042;-79
2022/04/17 01:51:06;;;;;;;0.50;0.50;;;;;;;10.92;36.00;102407.28;5188772;28;20572;-76
2022/04/17 01:53:36;;;;;;;0.32;0.32;;;;;;;10.94;36.06;102408.19;5190292;28;20192;-76
2022/04/17 01:56:07;;;;;;;0.50;0.50;;;;;;;10.97;36.39;102412.53;5195880;28;20033;-77
2022/04/17 01:58:37;;;;;;;0.40;0.40;;;;;;;10.97;36.20;102402.91;5210129;28;20444;-75
2022/04/17 02:01:08;;;;;;;0.50;0.50;;;;;;;10.49;36.98;102404.69;5197474;28;20026;-79
2022/04/17 02:03:40;;;;;;;0.35;0.35;;;;;;;10.71;36.87;102395.94;5189541;28;20128;-77
2022/04/17 02:06:10;;;;;;;0.47;0.47;;;;;;;10.74;36.58;102396.81;5159003;28;20160;-77
2022/04/17 02:08:44;;;;;;;5.18;1.27;;;;;;;10.86;36.56;102386.31;5191706;28;20536;-76
2022/04/17 02:11:14;;;;;;;0.40;0.40;;;;;;;10.76;36.25;102387.19;5196216;28;20045;-77
2022/04/17 02:13:45;;;;;;;0.77;0.77;;;;;;;10.74;36.75;102388.94;5195387;28;20044;-77
2022/04/17 02:16:20;;;;;;;0.52;0.52;;;;;;;10.54;36.89;102392.44;5159899;28;20062;-79
2022/04/17 02:18:52;;;;;;;1.65;1.45;;;;;;;10.69;37.11;102392.44;5194346;28;20261;-76
2022/04/17 02:21:22;;;;;;;2.17;1.23;;;;;;;10.75;37.12;102391.53;5175008;28;20064;-79
2022/04/17 02:23:53;;;;;;;0.30;0.30;;;;;;;10.55;37.12;102391.56;5191964;28;20096;-77
2022/04/17 02:26:23;;;;;;;0.98;0.88;;;;;;;10.24;37.15;102395.03;5189499;28;20030;-76
2022/04/17 02:29:00;;;;;;;;;;;;;;;10.44;37.03;102390.69;5191964;28;20052;-78
2022/04/17 02:31:31;;;;;;;0.40;0.40;;;;;;;10.55;37.49;102384.56;5196260;28;20547;-75
2022/04/17 02:34:01;;;;;;;0.40;0.40;;;;;;;10.55;37.13;102388.94;5195721;28;20099;-76
2022/04/17 02:36:32;;;;;;;0.45;0.45;;;;;;;10.50;37.27;102386.31;5192775;28;20025;-78
2022/04/17 02:39:02;;;;;;;0.30;0.30;;;;;;;10.67;37.20;102385.41;5192863;28;20278;-77
2022/04/17 02:41:33;;;;;;;0.40;0.40;;;;;;;10.65;37.03;102377.56;5175504;28;20037;-76
2022/04/17 02:44:06;;;;;;;0.73;0.70;;;;;;;10.62;37.49;102380.16;5196506;28;20037;-78
2022/04/17 02:49:25;;;;;;;0.60;0.60;;;;;;;10.56;37.68;102388.06;5197553;28;20038;-78
2022/04/17 02:51:56;;;;;;;0.77;0.77;;;;;;;10.55;37.59;102375.81;5179084;28;20055;-77
2022/04/17 02:54:26;;;;;;;0.73;0.73;;;;;;;10.60;37.40;102376.69;5196184;28;20062;-76
2022/04/17 02:56:57;;;;;;;0.50;0.50;;;;;;;10.53;37.58;102377.59;5193774;28;20033;-76
2022/04/17 02:59:27;;;;;;;0.77;0.77;;;;;;;10.50;37.57;102374.94;5180580;28;20076;-76
2022/04/17 03:07:36;;;;;;;0.60;0.60;;;;;;;10.50;37.68;102375.81;5189971;28;20091;-77
2022/04/17 03:10:07;;;;;;;0.75;0.75;;;;;;;10.45;37.79;102374.09;5176106;28;20405;-77
2022/04/17 03:12:38;;;;;;;0.50;0.50;;;;;;;10.47;37.98;102375.81;5195871;28;20509;-79
2022/04/17 03:15:09;;;;;;;0.90;0.88;;;;;;;10.48;37.51;102381.94;5199173;28;20381;-78
2022/04/17 03:17:40;;;;;;;0.50;0.50;;;;;;;10.42;37.93;102381.94;5200093;28;20022;-77
2022/04/17 03:20:10;;;;;;;0.40;0.40;;;;;;;10.35;38.03;102376.66;5193797;28;20063;-78
2022/04/17 03:22:42;;;;;;;0.60;0.60;;;;;;;10.32;37.87;102375.81;5183241;28;20029;-78
2022/04/17 03:25:12;;;;;;;0.35;0.35;;;;;;;10.29;38.29;102366.16;5184391;28;20116;-78
2022/04/17 03:27:46;;;;;;;0.30;0.30;;;;;;;10.38;38.75;102370.56;5184312;28;20041;-77
2022/04/17 03:30:18;;;;;;;1.88;1.10;;;;;;;10.36;38.32;102367.94;5202885;28;20036;-79
2022/04/17 03:32:52;;;;;;;0.32;0.32;;;;;;;10.44;37.79;102362.69;5175211;28;20482;-77
2022/04/17 03:35:23;;;;;;;0.47;0.47;;;;;;;10.30;39.06;102353.94;5193550;28;20041;-77
2022/04/17 03:37:53;;;;;;;0.60;0.60;;;;;;;10.37;38.31;102355.69;5188430;28;20041;-77
2022/04/17 03:40:24;;;;;;;0.50;0.50;;;;;;;10.28;38.69;102356.56;5187963;28;20043;-77
2022/04/17 03:42:57;;;;;;;1.20;0.95;;;;;;;10.29;38.41;102354.78;5196280;28;20553;-77
2022/04/17 03:45:28;;;;;;;0.20;0.20;;;;;;;10.26;38.79;102353.06;5197709;28;20040;-77
2022/04/17 03:47:59;;;;;;;0.50;0.50;;;;;;;10.15;38.62;102357.41;5196738;28;20041;-78
2022/04/17 03:50:30;;;;;;;0.40;0.40;;;;;;;10.19;38.94;102348.69;5194088;28;20046;-79
2022/04/17 03:53:01;;;;;;;0.60;0.60;;;;;;;10.12;39.14;102354.81;5197275;28;20530;-78
2022/04/17 03:55:32;;;;;;;0.32;0.32;;;;;;;10.13;38.28;102353.91;5195025;28;20042;-78
2022/04/17 03:58:02;;;;;;;0.70;0.70;;;;;;;10.13;38.47;102356.53;5193795;28;20048;-77
2022/04/17 04:00:37;;;;;;;4.93;1.75;;;;;;;10.15;38.28;102362.66;5195461;28;20037;-77
2022/04/17 04:03:07;;;;;;;0.90;0.90;;;;;;;10.00;39.00;102364.38;5187875;28;20030;-79
2022/04/17 04:05:37;;;;;;;0.68;0.68;;;;;;;10.01;38.78;102370.50;5193732;28;20059;-77
2022/04/17 04:08:08;;;;;;;0.30;0.30;;;;;;;9.75;39.06;102356.47;5192049;28;20073;-78
2022/04/17 04:10:39;;;;;;;0.35;0.35;;;;;;;9.87;39.27;102357.38;5193454;28;20775;-78
2022/04/17 04:13:10;;;;;;;0.50;0.50;;;;;;;9.89;39.27;102355.63;5196852;28;20587;-78
2022/04/17 04:15:40;;;;;;;1.20;1.20;;;;;;;9.76;39.43;102349.47;5198997;28;20045;-77
2022/04/17 04:18:11;;;;;;;0.85;0.85;;;;;;;9.84;39.02;102354.75;5196049;28;20037;-77
2022/04/17 04:20:41;;;;;;;0.50;0.50;;;;;;;9.83;39.46;102350.38;5177055;28;20269;-78
2022/04/17 04:23:12;;;;;;;1.02;0.93;;;;;;;9.85;39.09;102346.00;5188407;28;20081;-80
2022/04/17 04:25:45;;;;;;;0.47;0.47;;;;;;;9.81;39.62;102346.84;5198766;28;20033;-77
2022/04/17 04:28:34;;;;;;;;;;;;;;;9.84;39.57;102336.38;5192772;28;20619;-79
2022/04/17 04:31:17;;;;;;;0.40;0.40;;;;;;;9.80;39.63;102338.13;5195076;28;19917;-77
2022/04/17 04:33:47;;;;;;;0.60;0.60;;;;;;;9.64;39.94;102329.34;5181155;28;20718;-80
2022/04/17 04:36:20;;;;;;;0.85;0.85;;;;;;;9.72;39.27;102332.00;5203122;28;20062;-78
2022/04/17 04:38:51;;;;;;;0.50;0.50;;;;;;;9.65;39.76;102336.34;5186634;28;20036;-77
2022/04/17 04:41:22;;;;;;;4.70;1.20;;;;;;;9.57;39.81;102332.81;5195848;28;20042;-77
2022/04/17 04:43:56;;;;;;;0.28;0.28;;;;;;;9.59;39.86;102328.47;5191351;28;20487;-77
2022/04/17 04:46:26;;;;;;;;;;;;;;;9.54;39.52;102324.97;5197057;28;20605;-80
2022/04/17 04:51:46;;;;;;;0.40;0.40;;;;;;;9.47;39.65;102328.41;5194313;28;20506;-76
2022/04/17 04:54:16;;;;;;;0.40;0.40;;;;;;;9.11;41.16;102329.16;5195024;28;20087;-75
2022/04/17 04:56:47;;;;;;;0.40;0.40;;;;;;;9.41;40.09;102319.69;5164133;28;20091;-79
2022/04/17 04:59:18;;;;;;;0.30;0.30;;;;;;;9.38;40.05;102327.50;5177611;28;20202;-76
2022/04/17 05:01:50;;;;;;;2.80;1.40;;;;;;;9.18;41.45;102321.34;5195465;28;20040;-78
2022/04/17 05:04:20;;;;;;;0.30;0.30;;;;;;;9.32;40.35;102314.41;5193729;28;20045;-77
2022/04/17 05:06:50;;;;;;;0.43;0.43;;;;;;;9.42;40.39;102313.56;5200390;28;20040;-77
2022/04/17 05:09:21;;;;;;;0.55;0.55;;;;;;;8.92;41.95;102316.84;5193849;28;20095;-75
2022/04/17 05:11:54;;;;;;;0.55;0.55;;;;;;;8.80;42.03;102318.50;5178677;28;20033;-77
2022/04/17 05:14:29;;;;;;;;;;;;;;;9.21;40.99;102314.38;5179678;28;20060;-77
2022/04/17 05:16:59;;;;;;;0.40;0.40;;;;;;;9.26;40.94;102317.88;5176311;28;20437;-76
2022/04/17 05:19:30;;;;;;;3.03;0.85;;;;;;;9.21;40.86;102319.59;5190385;28;20049;-79
2022/04/17 05:22:02;;;;;;;0.75;0.75;;;;;;;9.34;40.78;102327.53;5197296;28;20030;-76
2022/04/17 05:24:33;;;;;;;0.68;0.68;;;;;;;9.28;41.14;102331.84;5190147;28;20045;-78
2022/04/17 05:27:03;;;;;;;0.30;0.30;;;;;;;9.19;41.27;102329.19;5194453;28;20425;-76
2022/04/17 05:29:34;;;;;;;0.45;0.45;;;;;;;9.20;41.26;102330.94;5173952;28;20557;-81
2022/04/17 05:32:05;;;;;;;0.35;0.35;;;;;;;9.26;41.16;102327.47;5192321;28;20104;-80
2022/04/17 05:34:36;;;;;;;0.30;0.30;;;;;;;9.23;41.25;102328.34;5190392;28;20582;-80
2022/04/17 05:37:09;;;;;;;0.30;0.30;;;;;;;9.22;41.17;102326.59;5193720;28;20078;-81
2022/04/17 05:39:42;;;;;;;2.17;1.30;;;;;;;9.19;41.55;102326.56;5179432;28;20030;-78
2022/04/17 05:42:13;;;;;;;0.35;0.35;;;;;;;9.19;41.67;102325.72;5195360;28;20080;-78
2022/04/17 05:44:45;;;;;;;6.55;1.02;;;;;;;9.04;42.00;102332.63;5197198;28;20047;-76
2022/04/17 05:47:15;;;;;;;0.30;0.30;;;;;;;9.03;42.01;102325.63;5192726;28;20056;-79
2022/04/17 05:49:46;;;;;;;0.70;0.70;;;;;;;8.85;42.45;102330.75;5209394;28;20045;-79
2022/04/17 05:52:17;;;;;;;0.65;0.65;;;;;;;9.05;41.93;102334.34;5204946;28;20034;-82
2022/04/17 05:54:47;;;;;;;0.50;0.50;;;;;;;9.17;41.79;102324.81;5204403;28;20120;-81
2022/04/17 05:57:18;;;;;;;0.30;0.30;;;;;;;9.02;42.79;102328.22;5186529;28;20041;-77
2022/04/17 05:59:49;;;;;;;0.30;0.30;;;;;;;8.61;43.49;102327.13;5179452;28;20625;-78
2022/04/17 06:02:19;;;;;;;0.30;0.30;;;;;;;8.96;42.60;102334.34;5183633;28;20075;-78
2022/04/17 06:04:50;;;;;;;0.30;0.30;;;;;;;9.09;42.72;102330.03;5180143;28;20030;-79
2022/04/17 06:07:27;;;;;;;0.50;0.50;;;;;;;8.91;44.05;102330.78;5180193;28;20457;-77
2022/04/17 06:10:02;;;;;;;7.43;0.88;;;;;;;9.13;42.36;102330.03;5206311;28;20087;-78
2022/04/17 06:12:33;;;;;;;5.47;1.48;;;;;;;9.30;42.37;102318.75;5163635;28;20116;-77
2022/04/17 06:15:05;;;;;;;0.30;0.30;;;;;;;8.90;43.66;102324.69;5177566;28;20155;-79
2022/04/17 06:17:40;;;;;;;2.08;1.25;;;;;;;8.96;43.51;102323.88;5179237;28;20486;-81
2022/04/17 06:20:13;;;;;;;0.35;0.35;;;;;;;9.25;42.59;102321.38;5190164;28;20457;-78
2022/04/17 06:22:44;;;;;;;0.40;0.40;;;;;;;9.00;43.90;102324.75;5192437;28;20087;-79
2022/04/17 06:25:14;;;;;;;0.52;0.52;;;;;;;9.07;43.23;102323.91;5207185;28;20037;-80
2022/04/17 06:27:46;;;;;;;0.30;0.30;;;;;;;9.08;43.15;102320.44;5193554;28;20036;-77
2022/04/17 06:30:19;;;;;;;0.30;0.30;;;;;;;9.23;42.93;102317.88;5195260;28;20030;-78
2022/04/17 06:32:50;;;;;;;1.00;1.00;;;;;;;9.27;43.10;102316.13;5189864;28;20023;-77
2022/04/17 06:35:23;;;;;;;0.40;0.40;;;;;;;9.27;43.25;102318.75;5203872;28;20034;-77
2022/04/17 06:37:59;;;;;;;3.75;1.65;;;;;;;9.47;42.76;102315.31;5173454;28;20048;-79
2022/04/17 06:40:36;;;;;;;0.47;0.47;;;;;;;9.33;43.29;102321.41;5192395;28;20297;-76
2022/04/17 06:43:08;;;;;;;0.40;0.40;;;;;;;9.27;43.53;102321.38;5190800;28;20052;-77
2022/04/17 06:45:40;;;;;;;0.45;0.45;;;;;;;9.22;43.96;102326.59;5197539;28;20116;-78
2022/04/17 06:48:18;;;;;;;0.30;0.30;;;;;;;9.36;43.42;102326.66;5193147;28;20224;-78
2022/04/17 06:53:21;;;;;;;1.67;1.57;;;;;;;9.37;43.74;102319.66;5200680;28;20048;-79
2022/04/17 06:55:52;;;;;;;0.30;0.30;;;;;;;9.41;44.49;102314.44;5202767;28;20039;-81
2022/04/17 06:58:26;;;;;;;1.33;1.27;;;;;;;9.38;43.76;102306.56;5193870;28;20037;-81
2022/04/17 07:00:56;;;;;;;0.50;0.50;;;;;;;9.41;44.35;102311.81;5179615;28;20032;-81
2022/04/17 07:03:27;;;;;;;0.57;0.57;;;;;;;9.34;44.53;102314.44;5188220;28;20081;-80
2022/04/17 07:05:58;;;;;;;1.45;1.05;;;;;;;9.51;43.95;102301.38;5189157;28;20166;-81
2022/04/17 07:08:29;;;;;;;0.98;0.93;;;;;;;9.67;43.48;102292.66;5163043;28;20078;-81
2022/04/17 07:11:04;;;;;;;0.43;0.43;;;;;;;9.75;43.24;102290.94;5185995;28;20123;-81
2022/04/17 07:13:39;;;;;;;0.40;0.40;;;;;;;9.66;44.13;102277.81;5178396;28;20052;-81
2022/04/17 07:16:10;;;;;;;0.30;0.30;;;;;;;9.69;43.86;102280.44;5227556;28;20021;-81
2022/04/17 07:18:41;;;;;;;0.40;0.40;;;;;;;9.74;43.78;102283.09;5203825;28;20278;-81
2022/04/17 07:21:11;;;;;;;0.50;0.50;;;;;;;9.64;44.10;102282.16;5193816;28;20036;-80
2022/04/17 07:23:43;;;;;;;0.30;0.30;;;;;;;9.81;43.54;102278.69;5192375;28;20152;-81
2022/04/17 07:26:14;;;;;;;5.20;1.15;;;;;;;9.72;43.62;102272.56;5185316;28;20040;-81
2022/04/17 07:28:46;;;;;;;0.45;0.45;;;;;;;9.74;43.97;102283.94;5219348;28;20115;-81
2022/04/17 07:31:19;;;;;;;0.30;0.30;;;;;;;9.84;43.73;102281.34;5202429;28;20025;-81
2022/04/17 07:33:50;;;;;;;0.60;0.60;;;;;;;9.85;43.75;102275.22;5185741;28;20037;-81
2022/04/17 07:36:20;;;;;;;0.88;0.88;;;;;;;9.85;43.93;102283.09;5192477;28;20051;-80
2022/04/17 07:38:51;;;;;;;0.30;0.30;;;;;;;9.82;43.82;102283.97;5192503;28;20047;-81
2022/04/17 07:41:21;;;;;;;0.55;0.55;;;;;;;9.95;43.47;102283.97;5189670;28;20040;-81
2022/04/17 07:43:54;;;;;;;0.70;0.70;;;;;;;10.05;43.84;102283.97;5176579;28;20037;-81
2022/04/17 07:46:25;;;;;;;1.02;0.95;;;;;;;10.10;44.01;102290.97;5191205;28;20028;-81
2022/04/17 07:48:58;;;;;;;0.40;0.40;;;;;;;10.10;43.77;102286.59;5190977;28;20040;-80
2022/04/17 07:51:29;;;;;;;0.30;0.30;;;;;;;10.30;43.61;102293.59;5206213;28;20059;-81
2022/04/17 07:54:00;;;;;;;0.40;0.40;;;;;;;10.34;43.75;102285.72;5188076;28;20087;-80
2022/04/17 07:56:34;;;;;;;0.28;0.28;;;;;;;10.51;43.21;102284.84;5186172;28;20036;-80
2022/04/17 07:59:14;;;;;;;;;;;;;;;10.44;43.12;102277.88;5203195;28;20056;-80
2022/04/17 08:01:46;;;;;;;0.30;0.30;;;;;;;10.45;43.31;102277.00;5213036;28;20394;-82
2022/04/17 08:04:16;;;;;;;0.30;0.30;;;;;;;10.53;43.28;102275.22;5200975;28;20037;-81
2022/04/17 08:06:52;;;;;;;0.30;0.30;;;;;;;10.59;43.00;102272.59;5211929;28;20017;-81
2022/04/17 08:09:22;;;;;;;0.43;0.43;;;;;;;10.43;43.59;102269.09;5214015;28;20037;-80
2022/04/17 08:11:53;;;;;;;0.40;0.40;;;;;;;10.59;43.21;102266.44;5198556;28;20327;-83
2022/04/17 08:14:29;;;;;;;3.10;1.70;;;;;;;10.76;43.32;102264.66;5188362;28;20045;-81
2022/04/17 08:17:00;;;;;;;;;;;;;;;10.65;43.19;102259.44;5196004;28;20029;-81
2022/04/17 08:19:32;;;;;;;0.38;0.38;;;;;;;10.74;43.07;102263.81;5196256;28;19920;-83
2022/04/17 08:22:03;;;;;;;1.30;1.30;;;;;;;10.69;42.94;102266.44;5213235;28;20056;-83
2022/04/17 08:24:33;;;;;;;0.40;0.40;;;;;;;10.84;43.12;102267.25;5211417;28;20044;-81
2022/04/17 08:27:09;;;;;;;0.73;0.70;;;;;;;10.79;43.00;102266.38;5183683;28;20029;-85
2022/04/17 08:29:40;;;;;;;0.73;0.73;;;;;;;10.84;42.89;102265.50;5185521;28;20045;-81
2022/04/17 08:32:10;;;;;;;0.50;0.50;;;;;;;10.79;43.30;102269.00;5209673;28;20033;-81
2022/04/17 08:34:41;;;;;;;0.55;0.55;;;;;;;10.82;43.37;102256.78;5190990;28;20466;-82
2022/04/17 08:37:11;;;;;;;0.82;0.82;;;;;;;10.91;42.84;102261.09;5197527;28;20045;-80
2022/04/17 08:39:42;;;;;;;0.73;0.68;;;;;;;11.00;42.62;102261.06;5189090;28;20045;-81
2022/04/17 08:42:13;;;;;;;1.55;1.38;;;;;;;10.99;42.64;102259.31;5207313;28;20041;-81
2022/04/17 08:44:43;;;;;;;0.40;0.40;;;;;;;11.08;42.65;102252.28;5192150;28;20037;-81
2022/04/17 08:47:14;;;;;;;0.30;0.30;;;;;;;11.10;42.13;102247.91;5201097;28;20026;-81
2022/04/17 08:49:45;;;;;;;0.38;0.38;;;;;;;11.15;41.96;102248.75;5191984;28;20067;-81
2022/04/17 08:52:16;;;;;;;0.50;0.50;;;;;;;11.13;42.34;102242.63;5202486;28;20041;-81
2022/04/17 08:54:49;;;;;;;0.73;0.73;;;;;;;11.21;42.36;102248.69;5153398;28;20072;-81
2022/04/17 08:57:32;;;;;;;0.60;0.60;;;;;;;11.27;42.10;102246.06;5191481;28;20086;-82
2022/04/17 09:00:05;;;;;;;1.75;0.80;;;;;;;11.30;41.92;102251.28;5200454;28;20242;-82
2022/04/17 09:02:35;;;;;;;1.48;0.68;;;;;;;11.44;42.08;102250.34;5180196;28;20037;-82
2022/04/17 09:05:08;;;;;;;0.85;0.85;;;;;;;11.45;41.86;102257.31;5181778;28;20052;-82
2022/04/17 09:07:50;;;;;;;4.40;1.27;;;;;;;11.42;41.99;102244.22;5209238;28;20036;-83
2022/04/17 09:10:25;;;;;;;0.30;0.30;;;;;;;11.49;41.21;102245.91;5191770;28;20618;-82
2022/04/17 09:13:00;;;;;;;0.63;0.63;;;;;;;11.56;40.45;102237.09;5181771;28;20065;-82
2022/04/17 09:15:36;;;;;;;0.45;0.45;;;;;;;11.59;40.65;102244.09;5213155;28;20124;-82
2022/04/17 09:18:08;;;;;;;0.52;0.50;;;;;;;11.62;41.16;102231.81;5214223;28;20028;-82
2022/04/17 09:20:46;;;;;;;0.63;0.63;;;;;;;11.68;40.51;102233.50;5202151;28;20029;-82
2022/04/17 09:27:30;;;;;;;0.73;0.73;;;;;;;11.84;40.65;102222.88;5181901;28;20495;-80
2022/04/17 09:30:02;;;;;;;11.02;1.30;;;;;;;11.92;40.83;102221.06;5179997;28;20114;-82
2022/04/17 09:32:33;;;;;;;0.40;0.40;;;;;;;11.92;40.67;102214.06;5204874;28;20036;-82
2022/04/17 09:35:11;;;;;;;0.30;0.30;;;;;;;11.91;41.25;102199.16;5200193;28;20033;-81
2022/04/17 09:37:43;;;;;;;0.68;0.68;;;;;;;12.07;40.96;102199.91;5195260;28;20040;-82
2022/04/17 09:40:23;;;;;;;0.82;0.68;;;;;;;12.06;40.78;102197.28;5196962;28;20059;-82
2022/04/17 09:43:12;;;;;;;0.63;0.63;;;;;;;12.15;40.48;102196.34;5194947;28;20037;-82
2022/04/17 09:46:04;;;;;;;5.82;1.02;;;;;;;12.12;40.58;102191.97;5212404;28;20048;-81
2022/04/17 09:48:40;;;;;;;0.40;0.40;;;;;;;12.20;40.62;102190.13;5207430;28;20081;-81
2022/04/17 09:51:26;;;;;;;0.93;0.85;;;;;;;12.30;40.95;102187.41;5196222;28;20043;-81
2022/04/17 09:54:08;;;;;;;2.17;0.95;;;;;;;12.30;40.52;102176.88;5187432;28;20252;-80
2022/04/17 09:56:41;;;;;;;0.30;0.30;;;;;;;12.30;41.13;102166.34;5196438;28;20532;-82
2022/04/17 09:59:16;;;;;;;0.50;0.50;;;;;;;12.35;41.79;102168.03;5157810;28;20041;-82
2022/04/17 10:01:50;;;;;;;0.30;0.30;;;;;;;12.54;40.99;102159.94;5180554;28;20623;-81
2022/04/17 10:04:24;;;;;;;0.80;0.77;;;;;;;12.69;40.86;102156.22;5187300;28;20048;-80
2022/04/17 10:06:55;;;;;;;;;;;;;;;12.70;39.90;102157.97;5204854;28;20029;-80
2022/04/17 10:09:26;;;;;;;0.55;0.55;;;;;;;12.80;40.43;102149.06;5209516;28;19988;-80
2022/04/17 10:11:59;;;;;;;0.40;0.40;;;;;;;12.95;40.31;102145.34;5191774;28;20070;-80
2022/04/17 10:14:30;;;;;;;;;;;;;;;12.96;40.45;102138.28;5202525;28;20038;-80
2022/04/17 10:17:06;;;;;;;0.40;0.40;;;;;;;12.93;40.08;102141.84;5196775;28;20025;-79
2022/04/17 10:19:41;;;;;;;0.30;0.30;;;;;;;13.03;39.43;102127.66;5148570;28;20111;-80
2022/04/17 10:22:12;;;;;;;0.40;0.40;;;;;;;13.13;38.94;102136.28;5183033;28;20044;-80
2022/04/17 10:24:51;;;;;;;0.52;0.52;;;;;;;13.32;38.72;102125.47;5190488;28;20037;-80
2022/04/17 10:27:28;;;;;;;0.30;0.30;;;;;;;13.28;38.24;102119.38;5210109;28;20047;-80
2022/04/17 10:30:04;;;;;;;6.38;1.65;;;;;;;13.32;38.03;102117.56;5202880;28;20045;-80
2022/04/17 10:32:39;;;;;;;0.77;0.77;;;;;;;13.22;36.54;102122.97;5186091;28;20025;-80
2022/04/17 10:35:28;;;;;;;0.82;0.82;;;;;;;13.30;37.46;102112.31;5193009;28;20555;-80
2022/04/17 10:38:21;;;;;;;1.27;0.60;;;;;;;13.46;37.35;102117.38;5194917;28;20057;-80
2022/04/17 10:40:56;;;;;;;0.40;0.40;;;;;;;13.47;38.35;102100.66;5202061;28;20040;-80
2022/04/17 10:43:53;;;;;;;0.43;0.43;;;;;;;13.56;37.86;102108.38;5183473;28;20487;-80
2022/04/17 10:46:24;;;;;;;0.75;0.75;;;;;;;13.53;36.62;102108.47;5191599;28;20021;-80
2022/04/17 10:48:57;;;;;;;0.43;0.43;;;;;;;13.56;36.04;102107.53;5162163;28;20095;-80
2022/04/17 10:51:34;;;;;;;0.45;0.45;;;;;;;13.70;36.94;102110.78;5190250;28;20049;-80
2022/04/17 10:54:14;;;;;;;0.40;0.40;;;;;;;13.79;36.96;102105.34;5209328;28;20033;-80
2022/04/17 10:56:54;;;;;;;0.55;0.55;;;;;;;13.75;35.18;102106.31;5202871;28;20037;-80
2022/04/17 10:59:35;;;;;;;0.40;0.40;;;;;;;13.91;36.08;102098.09;5195060;28;20038;-81
2022/04/17 11:02:07;;;;;;;0.30;0.30;;;;;;;13.81;35.69;102100.03;5222521;28;20048;-80
2022/04/17 11:04:42;;;;;;;0.25;0.25;;;;;;;13.97;36.92;102090.91;5194722;28;20057;-81
2022/04/17 11:07:12;;;;;;;0.50;0.50;;;;;;;14.05;37.08;102085.50;5191243;28;20039;-81
2022/04/17 11:09:46;;;;;;;0.30;0.30;;;;;;;14.19;36.44;102081.72;5181027;28;20140;-81
2022/04/17 11:12:27;;;;;;;0.32;0.32;;;;;;;14.23;36.62;102083.41;5195847;28;20475;-81
2022/04/17 11:15:01;;;;;;;1.88;1.10;;;;;;;14.34;35.81;102076.09;5189620;28;20036;-81
2022/04/17 11:17:32;;;;;;;0.50;0.50;;;;;;;14.32;35.70;102064.72;5204024;28;20044;-81
2022/04/17 11:20:07;;;;;;;2.83;1.40;;;;;;;14.51;37.18;102061.66;5167000;28;20048;-81
2022/04/17 11:22:38;;;;;;;0.40;0.40;;;;;;;14.64;35.42;102063.16;5169013;28;20084;-81
2022/04/17 11:25:13;;;;;;;0.60;0.60;;;;;;;14.50;36.58;102039.69;5212194;28;20462;-81
2022/04/17 11:27:53;;;;;;;0.93;0.93;;;;;;;14.72;36.05;102045.38;5203477;28;20037;-81
2022/04/17 11:30:23;;;;;;;0.95;0.93;;;;;;;14.67;35.27;102043.75;5199321;28;20040;-81
2022/04/17 11:32:55;;;;;;;0.35;0.35;;;;;;;14.89;34.41;102038.81;5183750;28;20045;-81
2022/04/17 11:35:27;;;;;;;0.77;0.60;;;;;;;14.86;34.18;102038.88;5231978;28;20040;-81
2022/04/17 11:38:07;;;;;;;0.20;0.20;;;;;;;14.89;34.25;102025.63;5199153;28;20041;-82
2022/04/17 11:40:44;;;;;;;0.35;0.35;;;;;;;14.99;33.02;102027.13;5193178;28;20034;-80
2022/04/17 11:43:16;;;;;;;0.22;0.22;;;;;;;15.06;32.92;102030.47;5193962;28;20056;-82
2022/04/17 11:45:47;;;;;;;0.30;0.30;;;;;;;15.15;32.60;102024.97;5202206;28;20071;-81
2022/04/17 11:48:19;;;;;;;1.05;0.47;;;;;;;15.18;32.79;102016.06;5203790;28;20049;-81
2022/04/17 11:50:56;;;;;;;0.45;0.45;;;;;;;15.34;32.39;102012.13;5193714;28;20036;-81
2022/04/17 11:53:31;;;;;;;0.40;0.40;;;;;;;15.61;34.24;102001.72;5194429;28;20037;-81
2022/04/17 11:56:03;;;;;;;0.20;0.20;;;;;;;15.53;33.18;101995.75;5187270;28;20454;-81
2022/04/17 11:58:39;;;;;;;0.45;0.45;;;;;;;15.59;34.11;101995.59;5202980;28;20047;-80
2022/04/17 12:01:22;;;;;;;0.40;0.40;;;;;;;15.87;32.26;101992.19;5226797;28;20052;-81
2022/04/17 12:03:55;;;;;;;0.30;0.30;;;;;;;15.88;33.16;101986.00;5199799;28;20044;-80
2022/04/17 12:06:27;;;;;;;0.40;0.40;;;;;;;15.99;32.51;101983.03;5210794;28;20028;-80
2022/04/17 12:09:01;;;;;;;0.40;0.40;;;;;;;16.03;34.21;101976.75;5198898;28;20049;-81
2022/04/17 12:11:33;;;;;;;0.30;0.30;;;;;;;16.01;33.27;101971.47;5210070;28;20434;-81
2022/04/17 12:14:04;;;;;;;0.47;0.47;;;;;;;16.11;33.68;101961.50;5188667;28;20045;-81
2022/04/17 12:16:49;;;;;;;0.50;0.50;;;;;;;16.35;32.77;101962.50;5191344;28;20274;-82